createdAt,value
2018-05-09T00:00:48.032Z,55.21
2018-05-09T00:01:48.015Z,55.21
2018-05-09T00:02:47.975Z,55.30
2018-05-09T00:03:47.903Z,55.11
2018-05-09T00:04:47.884Z,55.78
2018-05-09T00:05:47.813Z,55.65
2018-05-09T00:06:47.767Z,55.75
2018-05-09T00:07:47.733Z,55.75
2018-05-09T00:08:47.675Z,55.94
2018-05-09T00:09:47.657Z,55.65
2018-05-09T00:10:47.584Z,55.56
2018-05-09T00:11:47.568Z,55.65
2018-05-09T00:12:47.497Z,55.75
2018-05-09T00:13:47.444Z,55.75
2018-05-09T00:14:47.434Z,55.65
2018-05-09T00:15:47.360Z,55.56
2018-05-09T00:16:47.353Z,55.75
2018-05-09T00:17:47.265Z,55.46
2018-05-09T00:18:47.220Z,55.65
2018-05-09T00:19:47.176Z,55.75
2018-05-09T00:20:47.137Z,55.58
2018-05-09T00:21:47.125Z,55.85
2018-05-09T00:22:47.052Z,55.56
2018-05-09T00:23:46.997Z,55.56
2018-05-09T00:24:46.950Z,55.75
2018-05-09T00:25:46.904Z,55.65
2018-05-09T00:26:46.892Z,55.56
2018-05-09T00:27:46.853Z,55.85
2018-05-09T00:28:46.775Z,55.65
2018-05-09T00:29:46.723Z,55.56
2018-05-09T00:30:46.673Z,55.56
2018-05-09T00:31:46.633Z,55.94
2018-05-09T00:32:46.628Z,55.85
2018-05-09T00:33:46.540Z,55.75
2018-05-09T00:34:46.499Z,55.56
2018-05-09T00:35:46.456Z,55.75
2018-05-09T00:36:46.404Z,55.65
2018-05-09T00:37:46.471Z,55.65
2018-05-09T00:38:46.344Z,55.75
2018-05-09T00:39:46.305Z,55.46
2018-05-09T00:40:46.223Z,55.75
2018-05-09T00:41:46.257Z,56.04
2018-05-09T00:42:46.132Z,56.32
2018-05-09T00:43:46.127Z,55.75
2018-05-09T00:44:46.042Z,56.13
2018-05-09T00:45:45.999Z,56.71
2018-05-09T00:46:45.959Z,56.81
2018-05-09T00:47:45.909Z,56.32
2018-05-09T00:48:45.913Z,56.42
2018-05-09T00:49:45.821Z,57.09
2018-05-09T00:50:45.770Z,56.13
2018-05-09T00:51:45.726Z,56.42
2018-05-09T00:52:45.682Z,56.42
2018-05-09T00:53:45.666Z,57.28
2018-05-09T00:54:45.621Z,56.99
2018-05-09T00:55:45.543Z,56.99
2018-05-09T00:56:45.503Z,56.99
2018-05-09T00:57:45.457Z,57.48
2018-05-09T00:58:45.408Z,57.67
2018-05-09T00:59:45.556Z,57.67
2018-05-09T01:00:45.316Z,57.67
2018-05-09T01:01:45.286Z,57.38
2018-05-09T01:02:45.226Z,57.48
2018-05-09T01:03:45.233Z,57.19
2018-05-09T01:04:45.178Z,57.45
2018-05-09T01:05:45.124Z,58.22
2018-05-09T01:06:45.052Z,58.59
2018-05-09T01:07:45.001Z,58.62
2018-05-09T01:08:44.992Z,58.44
2018-05-09T01:09:44.910Z,58.69
2018-05-09T01:10:44.864Z,58.44
2018-05-09T01:11:44.872Z,57.95
2018-05-09T01:12:44.778Z,58.44
2018-05-09T01:13:44.730Z,58.62
2018-05-09T01:14:44.684Z,58.62
2018-05-09T01:15:44.636Z,58.31
2018-05-09T01:16:44.632Z,58.31
2018-05-09T01:17:44.547Z,58.69
2018-05-09T01:18:44.502Z,58.69
2018-05-09T01:19:44.460Z,58.40
2018-05-09T01:20:44.412Z,58.69
2018-05-09T01:21:44.405Z,58.88
2018-05-09T01:22:44.321Z,58.98
2018-05-09T01:23:44.311Z,58.79
2018-05-09T01:24:44.231Z,58.31
2018-05-09T01:25:44.185Z,58.88
2018-05-09T01:26:44.141Z,58.50
2018-05-09T01:27:44.095Z,58.59
2018-05-09T01:28:44.084Z,58.98
2018-05-09T01:29:44.049Z,58.79
2018-05-09T01:30:43.960Z,59.17
2018-05-09T01:31:43.916Z,58.79
2018-05-09T01:32:43.868Z,59.27
2018-05-09T01:33:43.828Z,59.08
2018-05-09T01:34:43.809Z,58.98
2018-05-09T01:35:43.737Z,58.88
2018-05-09T01:36:43.686Z,58.98
2018-05-09T01:37:43.674Z,59.08
2018-05-09T01:38:43.597Z,59.45
2018-05-09T01:39:43.555Z,59.08
2018-05-09T01:40:43.506Z,59.27
2018-05-09T01:41:43.465Z,58.88
2018-05-09T01:42:43.452Z,58.98
2018-05-09T01:43:43.372Z,59.94
2018-05-09T01:44:43.324Z,60.13
2018-05-09T01:45:43.286Z,60.32
2018-05-09T01:46:43.233Z,59.55
2018-05-09T01:47:43.230Z,59.81
2018-05-09T01:48:43.149Z,59.65
2018-05-09T01:49:43.097Z,59.91
2018-05-09T01:50:43.090Z,60.29
2018-05-09T01:51:43.009Z,60.86
2018-05-09T01:52:42.965Z,60.96
2018-05-09T01:53:42.915Z,60.77
2018-05-09T01:54:42.869Z,60.58
2018-05-09T01:55:42.865Z,61.54
2018-05-09T01:56:42.780Z,60.77
2018-05-09T01:57:42.734Z,61.05
2018-05-09T01:58:42.690Z,61.15
2018-05-09T01:59:42.645Z,61.44
2018-05-09T02:00:42.631Z,61.54
2018-05-09T02:01:42.552Z,61.63
2018-05-09T02:02:42.505Z,61.63
2018-05-09T02:03:42.500Z,61.34
2018-05-09T02:04:42.415Z,61.82
2018-05-09T02:05:42.371Z,61.82
2018-05-09T02:06:42.324Z,61.54
2018-05-09T02:07:42.284Z,61.34
2018-05-09T02:08:42.268Z,62.30
2018-05-09T02:09:42.217Z,61.54
2018-05-09T02:10:42.155Z,62.40
2018-05-09T02:11:42.097Z,62.40
2018-05-09T02:12:42.055Z,61.63
2018-05-09T02:13:42.003Z,61.63
2018-05-09T02:14:41.996Z,61.91
2018-05-09T02:15:41.913Z,62.30
2018-05-09T02:16:41.867Z,62.40
2018-05-09T02:17:41.850Z,62.37
2018-05-09T02:18:41.775Z,62.46
2018-05-09T02:19:41.771Z,63.03
2018-05-09T02:20:41.684Z,62.74
2018-05-09T02:21:41.668Z,62.74
2018-05-09T02:22:41.590Z,62.55
2018-05-09T02:23:41.549Z,62.84
2018-05-09T02:24:41.502Z,62.65
2018-05-09T02:25:41.456Z,62.84
2018-05-09T02:26:41.445Z,62.74
2018-05-09T02:27:41.367Z,63.13
2018-05-09T02:28:41.323Z,63.03
2018-05-09T02:29:41.273Z,63.51
2018-05-09T02:30:41.230Z,63.42
2018-05-09T02:31:41.237Z,63.32
2018-05-09T02:32:41.152Z,63.32
2018-05-09T02:33:41.088Z,63.13
2018-05-09T02:34:41.042Z,62.84
2018-05-09T02:35:40.997Z,62.94
2018-05-09T02:36:40.990Z,62.84
2018-05-09T02:37:40.906Z,63.03
2018-05-09T02:38:40.874Z,62.94
2018-05-09T02:39:40.816Z,63.03
2018-05-09T02:40:40.800Z,62.94
2018-05-09T02:41:40.724Z,63.42
2018-05-09T02:42:40.677Z,63.60
2018-05-09T02:43:40.715Z,63.23
2018-05-09T02:44:40.585Z,62.74
2018-05-09T02:45:40.574Z,62.74
2018-05-09T02:46:40.495Z,62.74
2018-05-09T02:47:40.448Z,62.74
2018-05-09T02:48:40.403Z,62.84
2018-05-09T02:49:40.356Z,62.84
2018-05-09T02:50:40.355Z,62.27
2018-05-09T02:51:40.271Z,62.74
2018-05-09T02:52:40.219Z,62.37
2018-05-09T02:53:40.177Z,62.55
2018-05-09T02:54:40.159Z,62.08
2018-05-09T02:55:40.097Z,63.03
2018-05-09T02:56:40.040Z,62.55
2018-05-09T02:57:40.008Z,62.74
2018-05-09T02:58:39.940Z,62.55
2018-05-09T02:59:39.946Z,62.37
2018-05-09T03:00:39.850Z,62.27
2018-05-09T03:01:39.802Z,62.55
2018-05-09T03:02:39.787Z,62.27
2018-05-09T03:03:39.714Z,62.17
2018-05-09T03:04:39.670Z,61.98
2018-05-09T03:05:39.622Z,62.27
2018-05-09T03:06:39.582Z,62.27
2018-05-09T03:07:39.562Z,62.17
2018-05-09T03:08:39.529Z,63.03
2018-05-09T03:09:39.441Z,62.20
2018-05-09T03:10:39.394Z,62.74
2018-05-09T03:11:39.350Z,63.06
2018-05-09T03:12:39.297Z,62.84
2018-05-09T03:13:39.285Z,62.84
2018-05-09T03:14:39.249Z,63.51
2018-05-09T03:15:39.170Z,62.84
2018-05-09T03:16:39.113Z,63.13
2018-05-09T03:17:39.078Z,63.51
2018-05-09T03:18:39.020Z,63.80
2018-05-09T03:19:39.007Z,63.89
2018-05-09T03:20:38.961Z,63.03
2018-05-09T03:21:38.887Z,63.42
2018-05-09T03:22:38.841Z,63.70
2018-05-09T03:23:38.791Z,63.89
2018-05-09T03:24:38.785Z,63.60
2018-05-09T03:25:38.699Z,63.60
2018-05-09T03:26:38.661Z,63.60
2018-05-09T03:27:38.607Z,63.70
2018-05-09T03:28:38.566Z,63.51
2018-05-09T03:29:38.551Z,63.70
2018-05-09T03:30:38.480Z,63.80
2018-05-09T03:31:38.427Z,63.99
2018-05-09T03:32:38.415Z,64.28
2018-05-09T03:33:38.332Z,64.37
2018-05-09T03:34:38.289Z,63.89
2018-05-09T03:35:38.238Z,63.99
2018-05-09T03:36:38.226Z,64.28
2018-05-09T03:37:38.150Z,64.09
2018-05-09T03:38:38.104Z,63.70
2018-05-09T03:39:38.093Z,63.80
2018-05-09T03:40:38.017Z,63.80
2018-05-09T03:41:37.965Z,63.80
2018-05-09T03:42:37.933Z,63.70
2018-05-09T03:43:37.873Z,63.80
2018-05-09T03:44:37.856Z,63.70
2018-05-09T03:45:37.782Z,63.89
2018-05-09T03:46:37.735Z,63.80
2018-05-09T03:47:37.692Z,64.28
2018-05-09T03:48:37.676Z,63.89
2018-05-09T03:49:37.622Z,64.56
2018-05-09T03:50:37.557Z,64.18
2018-05-09T03:51:37.504Z,64.28
2018-05-09T03:52:37.462Z,64.37
2018-05-09T03:53:37.451Z,64.28
2018-05-09T03:54:37.368Z,64.18
2018-05-09T03:55:37.352Z,63.60
2018-05-09T03:56:37.281Z,63.70
2018-05-09T03:57:37.232Z,63.60
2018-05-09T03:58:37.182Z,63.60
2018-05-09T03:59:37.175Z,63.70
2018-05-09T04:00:37.107Z,63.99
2018-05-09T04:01:37.077Z,64.66
2018-05-09T04:02:37.008Z,64.37
2018-05-09T04:03:36.963Z,64.62
2018-05-09T04:04:36.915Z,64.56
2018-05-09T04:05:36.865Z,65.33
2018-05-09T04:06:36.849Z,66.25
2018-05-09T04:07:36.775Z,67.49
2018-05-09T04:08:36.727Z,67.21
2018-05-09T04:09:36.785Z,68.07
2018-05-09T04:10:36.636Z,67.97
2018-05-09T04:11:36.637Z,67.49
2018-05-09T04:12:36.553Z,67.30
2018-05-09T04:13:36.498Z,67.88
2018-05-09T04:14:36.457Z,67.21
2018-05-09T04:15:36.424Z,67.69
2018-05-09T04:16:36.397Z,67.02
2018-05-09T04:17:36.316Z,66.73
2018-05-09T04:18:36.275Z,66.83
2018-05-09T04:19:36.218Z,66.73
2018-05-09T04:20:36.212Z,67.69
2018-05-09T04:21:36.160Z,68.26
2018-05-09T04:22:36.089Z,68.26
2018-05-09T04:23:36.038Z,68.55
2018-05-09T04:24:35.989Z,68.35
2018-05-09T04:25:35.945Z,69.31
2018-05-09T04:26:35.949Z,69.21
2018-05-09T04:27:35.852Z,68.80
2018-05-09T04:28:35.811Z,69.41
2018-05-09T04:29:35.764Z,69.21
2018-05-09T04:30:35.713Z,69.21
2018-05-09T04:31:35.702Z,69.27
2018-05-09T04:32:35.626Z,69.85
2018-05-09T04:33:35.578Z,70.04
2018-05-09T04:34:35.593Z,71.57
2018-05-09T04:35:35.492Z,71.76
2018-05-09T04:36:35.441Z,71.47
2018-05-09T04:37:35.393Z,71.95
2018-05-09T04:38:35.417Z,71.28
2018-05-09T04:39:35.300Z,70.52
2018-05-09T04:40:35.284Z,71.38
2018-05-09T04:41:35.206Z,71.57
2018-05-09T04:42:35.162Z,70.71
2018-05-09T04:43:35.118Z,69.85
2018-05-09T04:44:35.101Z,70.33
2018-05-09T04:45:35.021Z,70.04
2018-05-09T04:46:34.981Z,69.85
2018-05-09T04:47:34.933Z,69.21
2018-05-09T04:48:34.892Z,69.37
2018-05-09T04:49:34.880Z,69.60
2018-05-09T04:50:34.795Z,69.41
2018-05-09T04:51:34.746Z,69.21
2018-05-09T04:52:34.708Z,70.17
2018-05-09T04:53:34.650Z,71.61
2018-05-09T04:54:34.637Z,71.99
2018-05-09T04:55:34.636Z,72.18
2018-05-09T04:56:34.574Z,71.32
2018-05-09T04:57:34.472Z,71.42
2018-05-09T04:58:34.420Z,72.18
2018-05-09T04:59:34.375Z,73.19
2018-05-09T05:00:34.360Z,73.58
2018-05-09T05:01:34.329Z,73.00
2018-05-09T05:02:34.239Z,73.48
2018-05-09T05:03:34.196Z,73.00
2018-05-09T05:04:34.148Z,72.33
2018-05-09T05:05:34.120Z,71.95
2018-05-09T05:06:34.091Z,72.62
2018-05-09T05:07:34.006Z,72.28
2018-05-09T05:08:34.001Z,72.75
2018-05-09T05:09:33.915Z,71.89
2018-05-09T05:10:33.876Z,73.43
2018-05-09T05:11:33.823Z,72.85
2018-05-09T05:12:33.776Z,72.37
2018-05-09T05:13:33.762Z,72.37
2018-05-09T05:14:33.683Z,73.61
2018-05-09T05:15:33.639Z,72.85
2018-05-09T05:16:33.599Z,73.23
2018-05-09T05:17:33.545Z,74.28
2018-05-09T05:18:33.533Z,73.71
2018-05-09T05:19:33.457Z,73.61
2018-05-09T05:20:33.409Z,73.99
2018-05-09T05:21:33.360Z,74.28
2018-05-09T05:22:33.315Z,73.33
2018-05-09T05:23:33.305Z,72.56
2018-05-09T05:24:33.224Z,72.75
2018-05-09T05:25:33.186Z,72.28
2018-05-09T05:26:33.130Z,73.04
2018-05-09T05:27:33.125Z,73.65
2018-05-09T05:28:33.043Z,72.85
2018-05-09T05:29:32.992Z,72.88
2018-05-09T05:30:32.946Z,72.69
2018-05-09T05:31:32.899Z,72.50
2018-05-09T05:32:32.907Z,72.88
2018-05-09T05:33:32.808Z,72.79
2018-05-09T05:34:32.763Z,72.22
2018-05-09T05:35:32.717Z,71.93
2018-05-09T05:36:32.672Z,72.12
2018-05-09T05:37:32.658Z,72.41
2018-05-09T05:38:32.583Z,72.50
2018-05-09T05:39:32.538Z,72.41
2018-05-09T05:40:32.488Z,72.88
2018-05-09T05:41:32.448Z,72.79
2018-05-09T05:42:32.427Z,73.84
2018-05-09T05:43:32.353Z,73.84
2018-05-09T05:44:32.305Z,73.17
2018-05-09T05:45:32.352Z,72.98
2018-05-09T05:46:32.218Z,72.31
2018-05-09T05:47:32.202Z,71.83
2018-05-09T05:48:32.125Z,71.45
2018-05-09T05:49:32.075Z,71.55
2018-05-09T05:50:32.028Z,71.45
2018-05-09T05:51:31.984Z,71.36
2018-05-09T05:52:31.982Z,70.59
2018-05-09T05:53:31.890Z,70.87
2018-05-09T05:54:31.849Z,71.36
2018-05-09T05:55:31.802Z,71.26
2018-05-09T05:56:31.757Z,70.87
2018-05-09T05:57:31.759Z,70.40
2018-05-09T05:58:31.672Z,70.59
2018-05-09T05:59:31.627Z,70.21
2018-05-09T06:00:31.579Z,70.87
2018-05-09T06:01:31.527Z,71.36
2018-05-09T06:02:31.533Z,71.45
2018-05-09T06:03:31.440Z,71.16
2018-05-09T06:04:31.404Z,71.45
2018-05-09T06:05:31.349Z,70.72
2018-05-09T06:06:31.408Z,71.01
2018-05-09T06:07:31.290Z,70.72
2018-05-09T06:08:31.245Z,70.72
2018-05-09T06:09:31.159Z,70.62
2018-05-09T06:10:31.121Z,70.43
2018-05-09T06:11:31.072Z,71.01
2018-05-09T06:12:31.029Z,71.20
2018-05-09T06:13:31.024Z,71.01
2018-05-09T06:14:30.935Z,70.43
2018-05-09T06:15:30.889Z,70.15
2018-05-09T06:16:30.847Z,70.15
2018-05-09T06:17:30.796Z,69.89
2018-05-09T06:18:30.807Z,70.76
2018-05-09T06:19:30.706Z,70.66
2018-05-09T06:20:30.667Z,70.47
2018-05-09T06:21:30.618Z,70.47
2018-05-09T06:22:30.572Z,69.99
2018-05-09T06:23:30.560Z,69.70
2018-05-09T06:24:30.485Z,69.80
2018-05-09T06:25:30.433Z,70.12
2018-05-09T06:26:30.421Z,69.83
2018-05-09T06:27:30.345Z,69.45
2018-05-09T06:28:30.302Z,69.32
2018-05-09T06:29:30.337Z,69.54
2018-05-09T06:30:30.239Z,69.35
2018-05-09T06:31:30.166Z,69.26
2018-05-09T06:32:30.123Z,69.45
2018-05-09T06:33:30.105Z,69.17
2018-05-09T06:34:30.028Z,69.35
2018-05-09T06:35:29.987Z,69.17
2018-05-09T06:36:29.938Z,69.35
2018-05-09T06:37:29.889Z,69.54
2018-05-09T06:38:29.877Z,69.45
2018-05-09T06:39:29.840Z,68.97
2018-05-09T06:40:29.766Z,68.40
2018-05-09T06:41:29.714Z,68.11
2018-05-09T06:42:29.671Z,68.40
2018-05-09T06:43:29.626Z,69.07
2018-05-09T06:44:29.610Z,69.35
2018-05-09T06:45:29.567Z,68.33
2018-05-09T06:46:29.496Z,69.10
2018-05-09T06:47:29.442Z,67.85
2018-05-09T06:48:29.403Z,67.85
2018-05-09T06:49:29.354Z,68.14
2018-05-09T06:50:29.359Z,68.33
2018-05-09T06:51:29.264Z,68.43
2018-05-09T06:52:29.249Z,68.14
2018-05-09T06:53:29.175Z,68.24
2018-05-09T06:54:29.167Z,68.33
2018-05-09T06:55:29.084Z,68.52
2018-05-09T06:56:29.048Z,68.43
2018-05-09T06:57:28.992Z,68.05
2018-05-09T06:58:28.984Z,68.14
2018-05-09T06:59:28.937Z,69.10
2018-05-09T07:00:28.894Z,69.20
2018-05-09T07:01:28.814Z,69.20
2018-05-09T07:02:28.773Z,68.91
2018-05-09T07:03:28.725Z,68.33
2018-05-09T07:04:28.680Z,69.20
2018-05-09T07:05:28.679Z,69.20
2018-05-09T07:06:28.752Z,69.39
2018-05-09T07:07:28.545Z,69.71
2018-05-09T07:08:28.519Z,69.23
2018-05-09T07:09:28.455Z,69.33
2018-05-09T07:10:28.451Z,69.04
2018-05-09T07:11:28.371Z,69.62
2018-05-09T07:12:28.378Z,69.23
2018-05-09T07:13:28.276Z,69.52
2018-05-09T07:14:28.235Z,69.42
2018-05-09T07:15:28.191Z,69.23
2018-05-09T07:16:28.154Z,68.66
2018-05-09T07:17:28.121Z,69.04
2018-05-09T07:18:28.060Z,69.56
2018-05-09T07:19:28.011Z,69.07
2018-05-09T07:20:27.972Z,69.26
2018-05-09T07:21:27.922Z,68.50
2018-05-09T07:22:27.908Z,68.79
2018-05-09T07:23:27.836Z,68.69
2018-05-09T07:24:27.796Z,67.92
2018-05-09T07:25:27.746Z,68.34
2018-05-09T07:26:27.718Z,68.53
2018-05-09T07:27:27.696Z,68.73
2018-05-09T07:28:27.634Z,68.15
2018-05-09T07:29:27.573Z,68.34
2018-05-09T07:30:27.540Z,68.44
2018-05-09T07:31:27.480Z,68.53
2018-05-09T07:32:27.486Z,67.96
2018-05-09T07:33:27.407Z,67.29
2018-05-09T07:34:27.361Z,68.05
2018-05-09T07:35:27.349Z,68.53
2018-05-09T07:36:27.273Z,68.28
2018-05-09T07:37:27.251Z,68.63
2018-05-09T07:38:27.176Z,68.08
2018-05-09T07:39:27.163Z,67.99
2018-05-09T07:40:27.634Z,68.08
2018-05-09T07:41:27.044Z,67.61
2018-05-09T07:42:27.002Z,67.80
2018-05-09T07:43:26.955Z,67.61
2018-05-09T07:44:26.958Z,67.22
2018-05-09T07:45:26.865Z,66.84
2018-05-09T07:46:26.823Z,66.84
2018-05-09T07:47:26.782Z,67.41
2018-05-09T07:48:26.746Z,66.74
2018-05-09T07:49:26.734Z,66.64
2018-05-09T07:50:26.661Z,66.68
2018-05-09T07:51:26.607Z,66.20
2018-05-09T07:52:26.573Z,64.76
2018-05-09T07:53:26.567Z,64.66
2018-05-09T07:54:26.486Z,64.28
2018-05-09T07:55:26.471Z,64.18
2018-05-09T07:56:26.391Z,64.56
2018-05-09T07:57:26.344Z,64.47
2018-05-09T07:58:26.336Z,63.79
2018-05-09T07:59:26.295Z,64.12
2018-05-09T08:00:26.262Z,64.79
2018-05-09T08:01:26.169Z,63.54
2018-05-09T08:02:26.132Z,63.54
2018-05-09T08:03:26.084Z,62.87
2018-05-09T08:04:26.081Z,62.68
2018-05-09T08:05:26.043Z,62.90
2018-05-09T08:06:25.989Z,62.99
2018-05-09T08:07:25.914Z,62.51
2018-05-09T08:08:25.870Z,61.65
2018-05-09T08:09:25.863Z,61.39
2018-05-09T08:10:25.784Z,61.10
2018-05-09T08:11:25.750Z,61.10
2018-05-09T08:12:25.702Z,60.94
2018-05-09T08:13:25.659Z,61.13
2018-05-09T08:14:25.645Z,60.27
2018-05-09T08:15:25.603Z,60.00
2018-05-09T08:16:25.528Z,59.65
2018-05-09T08:17:25.520Z,59.45
2018-05-09T08:18:25.440Z,57.62
2018-05-09T08:19:25.408Z,57.65
2018-05-09T08:20:25.356Z,57.37
2018-05-09T08:21:25.316Z,56.33
2018-05-09T08:22:25.315Z,55.30
2018-05-09T08:23:25.236Z,55.40
2018-05-09T08:24:25.193Z,56.07
2018-05-09T08:25:25.150Z,55.01
2018-05-09T08:26:25.137Z,55.20
2018-05-09T08:27:25.063Z,55.23
2018-05-09T08:28:25.023Z,54.07
2018-05-09T08:29:25.023Z,54.46
2018-05-09T08:30:24.977Z,54.39
2018-05-09T08:31:24.941Z,53.42
2018-05-09T08:32:24.861Z,53.35
2018-05-09T08:33:24.816Z,52.87
2018-05-09T08:34:24.773Z,53.25
2018-05-09T08:35:24.728Z,52.48
2018-05-09T08:36:24.729Z,52.65
2018-05-09T08:37:24.648Z,52.94
2018-05-09T08:38:24.616Z,53.55
2018-05-09T08:39:24.562Z,52.22
2018-05-09T08:40:24.526Z,51.54
2018-05-09T08:41:24.514Z,51.95
2018-05-09T08:42:24.443Z,51.66
2018-05-09T08:43:24.506Z,50.24
2018-05-09T08:44:24.389Z,50.07
2018-05-09T08:45:24.318Z,49.49
2018-05-09T08:46:24.279Z,48.79
2018-05-09T08:47:24.247Z,48.69
2018-05-09T08:48:24.277Z,49.85
2018-05-09T08:49:24.209Z,50.43
2018-05-09T08:50:24.118Z,49.34
2018-05-09T08:51:24.077Z,48.44
2018-05-09T08:52:24.038Z,49.32
2018-05-09T08:53:24.025Z,49.51
2018-05-09T08:54:23.961Z,49.99
2018-05-09T08:55:23.947Z,49.05
2018-05-09T08:56:23.908Z,49.05
2018-05-09T08:57:23.839Z,48.18
2018-05-09T08:58:23.802Z,48.76
2018-05-09T08:59:23.762Z,48.47
2018-05-09T09:00:23.768Z,42.45
2018-05-09T09:01:23.676Z,43.01
2018-05-09T09:02:23.645Z,44.09
2018-05-09T09:03:23.597Z,44.48
2018-05-09T09:04:23.662Z,44.02
2018-05-09T09:05:23.571Z,43.95
2018-05-09T09:06:23.551Z,43.00
2018-05-09T09:07:23.443Z,42.14
2018-05-09T09:08:23.400Z,42.07
2018-05-09T09:09:23.364Z,40.73
2018-05-09T09:10:23.353Z,40.95
2018-05-09T09:11:23.286Z,39.88
2018-05-09T09:12:23.242Z,39.11
2018-05-09T09:13:23.239Z,38.91
2018-05-09T09:14:23.164Z,39.67
2018-05-09T09:15:23.158Z,40.05
2018-05-09T09:16:23.125Z,40.33
2018-05-09T09:17:23.051Z,40.23
2018-05-09T09:18:23.016Z,40.61
2018-05-09T09:19:23.737Z,40.33
2018-05-09T09:20:22.930Z,40.52
2018-05-09T09:21:22.929Z,40.33
2018-05-09T09:22:22.861Z,40.61
2018-05-09T09:23:22.815Z,40.61
2018-05-09T09:24:22.775Z,39.67
2018-05-09T09:25:22.748Z,39.74
2018-05-09T09:26:22.737Z,39.06
2018-05-09T09:27:22.676Z,40.33
2018-05-09T09:28:22.620Z,40.52
2018-05-09T09:29:23.234Z,40.31
2018-05-09T09:30:22.543Z,39.94
2018-05-09T09:31:22.506Z,40.13
2018-05-09T09:32:22.468Z,40.23
2018-05-09T09:33:22.426Z,40.42
2018-05-09T09:34:22.544Z,39.45
2018-05-09T09:35:22.351Z,39.47
2018-05-09T09:36:22.384Z,38.91
2018-05-09T09:37:22.422Z,38.44
2018-05-09T09:38:22.243Z,38.27
2018-05-09T09:39:22.238Z,37.78
2018-05-09T09:40:22.165Z,37.80
2018-05-09T09:41:22.177Z,37.34
2018-05-09T09:42:22.124Z,36.07
2018-05-09T09:43:22.053Z,36.36
2018-05-09T09:44:23.678Z,35.97
2018-05-09T09:45:21.967Z,37.80
2018-05-09T09:46:21.929Z,38.48
2018-05-09T09:47:21.936Z,37.62
2018-05-09T09:48:21.892Z,35.74
2018-05-09T09:49:21.816Z,37.24
2018-05-09T09:50:21.845Z,39.36
2018-05-09T09:51:21.752Z,39.62
2018-05-09T09:52:21.740Z,40.00
2018-05-09T09:53:21.668Z,40.94
2018-05-09T09:54:21.633Z,40.65
2018-05-09T09:55:21.595Z,41.33
2018-05-09T09:56:21.562Z,41.42
2018-05-09T09:57:21.549Z,42.08
2018-05-09T09:58:21.477Z,41.99
2018-05-09T09:59:21.446Z,42.25
2018-05-09T10:00:21.404Z,41.85
2018-05-09T10:01:21.368Z,43.20
2018-05-09T10:02:21.362Z,43.80
2018-05-09T10:03:21.288Z,43.54
2018-05-09T10:04:21.292Z,42.20
2018-05-09T10:05:21.238Z,42.03
2018-05-09T10:06:21.176Z,40.69
2018-05-09T10:07:21.161Z,40.91
2018-05-09T10:08:21.110Z,40.03
2018-05-09T10:09:21.102Z,38.48
2018-05-09T10:10:21.028Z,39.94
2018-05-09T10:11:20.985Z,41.00
2018-05-09T10:12:20.949Z,40.83
2018-05-09T10:13:20.907Z,39.80
2018-05-09T10:14:20.904Z,38.46
2018-05-09T10:15:20.840Z,38.19
2018-05-09T10:16:20.833Z,38.01
2018-05-09T10:17:20.759Z,36.96
2018-05-09T10:18:20.720Z,35.89
2018-05-09T10:19:20.721Z,36.20
2018-05-09T10:20:20.678Z,35.25
2018-05-09T10:21:20.609Z,34.58
2018-05-09T10:22:20.572Z,33.80
2018-05-09T10:23:20.593Z,34.21
2018-05-09T10:24:20.499Z,33.62
2018-05-09T10:25:20.491Z,34.03
2018-05-09T10:26:20.453Z,34.12
2018-05-09T10:27:20.387Z,34.22
2018-05-09T10:28:20.352Z,33.64
2018-05-09T10:29:20.314Z,33.34
2018-05-09T10:30:20.310Z,31.69
2018-05-09T10:31:20.355Z,31.80
2018-05-09T10:32:20.203Z,31.70
2018-05-09T10:33:20.166Z,31.70
2018-05-09T10:34:20.138Z,31.62
2018-05-09T10:35:20.099Z,31.70
2018-05-09T10:36:20.094Z,31.72
2018-05-09T10:37:20.021Z,31.92
2018-05-09T10:38:19.987Z,32.13
2018-05-09T10:39:19.952Z,30.45
2018-05-09T10:40:19.915Z,31.19
2018-05-09T10:41:19.928Z,31.70
2018-05-09T10:42:19.841Z,34.44
2018-05-09T10:43:19.812Z,35.96
2018-05-09T10:44:19.774Z,36.83
2018-05-09T10:45:19.735Z,37.71
2018-05-09T10:46:19.736Z,37.81
2018-05-09T10:47:19.663Z,37.24
2018-05-09T10:48:19.634Z,37.81
2018-05-09T10:49:19.592Z,39.08
2018-05-09T10:50:19.588Z,38.06
2018-05-09T10:51:19.523Z,36.81
2018-05-09T10:52:19.482Z,37.82
2018-05-09T10:53:19.457Z,36.18
2018-05-09T10:54:19.410Z,35.76
2018-05-09T10:55:19.412Z,36.16
2018-05-09T10:56:19.344Z,35.88
2018-05-09T10:57:19.426Z,34.06
2018-05-09T10:58:19.298Z,33.69
2018-05-09T10:59:19.237Z,33.62
2018-05-09T11:00:19.196Z,32.96
2018-05-09T11:01:19.160Z,32.19
2018-05-09T11:02:19.156Z,32.21
2018-05-09T11:03:19.087Z,32.03
2018-05-09T11:04:19.055Z,30.38
2018-05-09T11:05:19.017Z,30.09
2018-05-09T11:06:18.979Z,29.90
2018-05-09T11:07:18.979Z,29.71
2018-05-09T11:08:18.910Z,29.93
2018-05-09T11:09:18.877Z,30.22
2018-05-09T11:10:18.872Z,30.32
2018-05-09T11:11:18.805Z,29.14
2018-05-09T11:12:18.777Z,28.42
2018-05-09T11:13:18.735Z,30.51
2018-05-09T11:14:18.701Z,31.92
2018-05-09T11:15:18.708Z,33.91
2018-05-09T11:16:18.629Z,34.67
2018-05-09T11:17:18.594Z,35.90
2018-05-09T11:18:18.560Z,36.97
2018-05-09T11:19:18.524Z,36.60
2018-05-09T11:20:18.523Z,36.79
2018-05-09T11:21:18.453Z,37.76
2018-05-09T11:22:18.453Z,36.13
2018-05-09T11:23:18.417Z,34.77
2018-05-09T11:24:18.465Z,35.57
2018-05-09T11:25:18.314Z,34.52
2018-05-09T11:26:18.276Z,32.89
2018-05-09T11:27:18.239Z,32.65
2018-05-09T11:28:18.236Z,33.99
2018-05-09T11:29:18.170Z,35.63
2018-05-09T11:30:18.136Z,35.72
2018-05-09T11:31:18.128Z,36.30
2018-05-09T11:32:18.064Z,36.04
2018-05-09T11:33:18.060Z,35.55
2018-05-09T11:34:17.994Z,35.16
2018-05-09T11:35:17.962Z,34.40
2018-05-09T11:36:17.920Z,35.47
2018-05-09T11:37:17.953Z,34.88
2018-05-09T11:38:17.889Z,35.08
2018-05-09T11:39:17.816Z,34.97
2018-05-09T11:40:17.785Z,35.25
2018-05-09T11:41:17.748Z,35.64
2018-05-09T11:42:17.712Z,36.19
2018-05-09T11:43:17.727Z,37.08
2018-05-09T11:44:17.635Z,36.40
2018-05-09T11:45:17.598Z,36.50
2018-05-09T11:46:17.562Z,35.14
2018-05-09T11:47:17.529Z,35.13
2018-05-09T11:48:17.535Z,34.91
2018-05-09T11:49:17.455Z,35.67
2018-05-09T11:50:17.417Z,35.96
2018-05-09T11:51:17.382Z,35.67
2018-05-09T11:52:17.348Z,36.95
2018-05-09T11:53:17.444Z,37.45
2018-05-09T11:54:17.278Z,35.72
2018-05-09T11:55:17.235Z,37.18
2018-05-09T11:56:17.199Z,34.58
2018-05-09T11:57:17.163Z,34.79
2018-05-09T11:58:17.158Z,35.08
2018-05-09T11:59:17.092Z,33.67
2018-05-09T12:00:17.055Z,34.41
2018-05-09T12:01:17.018Z,34.97
2018-05-09T12:02:17.028Z,35.64
2018-05-09T12:03:16.954Z,37.69
2018-05-09T12:04:16.940Z,38.17
2018-05-09T12:05:16.882Z,37.81
2018-05-09T12:06:16.834Z,37.84
2018-05-09T12:07:16.799Z,35.92
2018-05-09T12:08:16.796Z,35.35
2018-05-09T12:09:16.750Z,34.48
2018-05-09T12:10:16.765Z,34.69
2018-05-09T12:11:16.660Z,34.32
2018-05-09T12:12:16.619Z,34.92
2018-05-09T12:13:16.615Z,33.58
2018-05-09T12:14:16.575Z,32.87
2018-05-09T12:15:16.509Z,34.92
2018-05-09T12:16:16.473Z,34.82
2018-05-09T12:17:16.435Z,34.33
2018-05-09T12:18:16.430Z,33.85
2018-05-09T12:19:16.401Z,34.14
2018-05-09T12:20:16.337Z,33.95
2018-05-09T12:21:16.288Z,34.05
2018-05-09T12:22:16.254Z,34.05
2018-05-09T12:23:16.218Z,33.67
2018-05-09T12:24:16.213Z,33.28
2018-05-09T12:25:16.148Z,34.06
2018-05-09T12:26:16.141Z,33.09
2018-05-09T12:27:16.079Z,32.62
2018-05-09T12:28:16.038Z,31.95
2018-05-09T12:29:16.031Z,31.66
2018-05-09T12:30:16.033Z,31.95
2018-05-09T12:31:15.937Z,32.34
2018-05-09T12:32:15.891Z,31.76
2018-05-09T12:33:16.812Z,32.05
2018-05-09T12:34:15.875Z,31.64
2018-05-09T12:35:15.786Z,32.82
2018-05-09T12:36:15.750Z,30.60
2018-05-09T12:37:15.713Z,28.16
2018-05-09T12:38:15.677Z,27.29
2018-05-09T12:39:15.710Z,27.98
2018-05-09T12:40:15.610Z,28.78
2018-05-09T12:41:15.574Z,27.51
2018-05-09T12:42:15.536Z,27.72
2018-05-09T12:43:15.501Z,27.03
2018-05-09T12:44:15.495Z,26.74
2018-05-09T12:45:15.471Z,27.00
2018-05-09T12:46:15.401Z,29.50
2018-05-09T12:47:15.358Z,29.58
2018-05-09T12:48:15.323Z,30.05
2018-05-09T12:49:15.294Z,30.33
2018-05-09T12:50:15.285Z,30.41
2018-05-09T12:51:15.249Z,31.58
2018-05-09T12:52:15.184Z,31.65